Time;durP1;ratioP1;P1;durP2;ratioP2;P2;SDS_P1;SDS_P2;PMS_P1;PMS_P2;Temp;Humidity;BMP_temperature;BMP_pressure;BME280_temperature;BME280_humidity;BME280_pressure;Samples;Min_cycle;Max_cycle;Signal;HPM_P1;HPM_P2
2023/01/30 00:00:19;;;;;;;34.00;17.38;;;;;;;5.58;59.77;101164.00;687963;28;1261;-81
2023/01/30 00:00:40;;;;;;;32.05;18.00;;;;;;;5.64;59.35;101169.50;688006;28;996;-82
2023/01/30 00:01:03;;;;;;;31.67;18.00;;;;;;;5.69;59.53;101167.16;682884;29;1108;-81
2023/01/30 00:01:30;;;;;;;30.75;18.30;;;;;;;5.68;59.44;101161.09;685394;28;1249;-82
2023/01/30 00:01:51;;;;;;;31.60;18.58;;;;;;;5.69;59.40;101161.97;688063;28;1228;-82
2023/01/30 00:02:11;;;;;;;31.08;18.33;;;;;;;5.66;59.83;101170.50;682646;28;1145;-82
2023/01/30 00:02:32;;;;;;;30.80;18.33;;;;;;;5.64;59.74;101164.31;682776;29;1120;-81
2023/01/30 00:02:52;;;;;;;32.70;18.88;;;;;;;5.70;59.18;101163.78;682943;29;1006;-81
2023/01/30 00:03:13;;;;;;;33.50;18.92;;;;;;;5.70;59.27;101164.66;680027;29;1181;-81
2023/01/30 00:03:33;;;;;;;35.33;19.00;;;;;;;5.71;59.36;101160.38;682755;29;1195;-81
2023/01/30 00:03:54;;;;;;;32.58;18.40;;;;;;;5.71;59.05;101163.84;682791;28;1040;-82
2023/01/30 00:04:15;;;;;;;35.88;18.75;;;;;;;5.72;59.80;101164.75;685371;28;1313;-82
2023/01/30 00:04:36;;;;;;;33.83;18.40;;;;;;;5.72;59.52;101169.94;682726;28;1368;-82
2023/01/30 00:04:57;;;;;;;34.70;18.13;;;;;;;5.72;59.53;101156.97;680250;29;1055;-81
2023/01/30 00:05:18;;;;;;;31.05;17.77;;;;;;;5.68;59.47;101170.56;680072;29;1911;-82
2023/01/30 00:05:38;;;;;;;31.80;18.15;;;;;;;5.72;59.52;101167.34;682780;28;1153;-82
2023/01/30 00:05:59;;;;;;;32.53;18.27;;;;;;;5.63;59.98;101159.94;682900;29;1064;-81
2023/01/30 00:06:20;;;;;;;32.83;18.17;;;;;;;5.79;59.43;101163.38;682876;28;1214;-81
2023/01/30 00:06:41;;;;;;;32.78;17.73;;;;;;;5.72;59.21;101165.63;682953;28;1356;-81
2023/01/30 00:07:01;;;;;;;31.73;17.45;;;;;;;5.66;59.76;101147.19;682744;28;1498;-82
2023/01/30 00:07:22;;;;;;;31.25;17.55;;;;;;;5.71;59.89;101150.91;682780;28;1248;-82
2023/01/30 00:07:43;;;;;;;31.30;17.80;;;;;;;5.75;59.51;101149.38;680157;29;1245;-82
2023/01/30 00:08:04;;;;;;;33.65;18.60;;;;;;;5.78;59.55;101149.53;685211;28;1179;-81
2023/01/30 00:08:24;;;;;;;34.73;18.50;;;;;;;5.75;59.47;101137.31;685610;28;772;-81
2023/01/30 00:08:45;;;;;;;33.97;18.33;;;;;;;5.81;59.37;101161.75;685504;28;982;-82
2023/01/30 00:09:07;;;;;;;32.95;17.90;;;;;;;5.79;59.66;101153.91;687980;28;1165;-82
2023/01/30 00:09:27;;;;;;;32.20;18.23;;;;;;;5.80;59.54;101167.75;688166;28;859;-81
2023/01/30 00:09:48;;;;;;;32.92;18.55;;;;;;;5.80;59.22;101163.47;680033;28;1030;-81
2023/01/30 00:10:09;;;;;;;32.10;18.55;;;;;;;5.75;59.56;101163.22;687964;28;1395;-82
2023/01/30 00:10:30;;;;;;;30.52;18.04;;;;;;;5.79;59.65;101169.47;685476;28;1444;-82
2023/01/30 00:10:51;;;;;;;33.87;18.20;;;;;;;5.84;59.59;101193.00;690815;28;1051;-81
2023/01/30 00:11:13;;;;;;;36.10;18.10;;;;;;;5.80;59.82;101166.06;690755;28;1044;-82
2023/01/30 00:11:34;;;;;;;35.92;18.20;;;;;;;5.81;59.60;101172.09;685390;28;1213;-82
2023/01/30 00:11:54;;;;;;;34.27;18.37;;;;;;;5.84;59.66;101164.53;685393;28;1292;-81
2023/01/30 00:12:15;;;;;;;34.00;18.85;;;;;;;5.77;59.90;101175.34;682722;29;1029;-82
2023/01/30 00:12:35;;;;;;;33.22;18.20;;;;;;;5.72;59.58;101163.03;680225;29;1117;-82
2023/01/30 00:13:08;;;;;;;32.83;18.10;;;;;;;5.80;59.64;101170.31;685302;28;1247;-82
2023/01/30 00:13:29;;;;;;;31.73;18.10;;;;;;;5.81;59.97;101179.88;682771;29;1064;-81
2023/01/30 00:13:50;;;;;;;32.53;18.20;;;;;;;5.81;59.71;101177.28;682965;29;957;-82
2023/01/30 00:14:11;;;;;;;31.67;17.88;;;;;;;5.81;59.81;101177.28;682735;28;1410;-82
2023/01/30 00:14:31;;;;;;;32.80;17.67;;;;;;;5.85;60.10;101184.44;682818;28;1171;-82
2023/01/30 00:14:52;;;;;;;31.92;17.67;;;;;;;5.85;59.76;101184.44;682939;28;869;-82
2023/01/30 00:15:12;;;;;;;32.00;18.30;;;;;;;5.91;60.07;101197.72;682681;28;1278;-82
2023/01/30 00:15:33;;;;;;;30.88;18.60;;;;;;;5.84;59.85;101187.84;682798;29;1248;-82
2023/01/30 00:15:53;;;;;;;31.60;18.57;;;;;;;5.85;59.65;101174.97;682673;29;1299;-82
2023/01/30 00:16:15;;;;;;;33.15;18.42;;;;;;;5.89;59.82;101189.84;682773;28;1138;-82
2023/01/30 00:16:36;;;;;;;33.53;18.00;;;;;;;5.88;59.48;101179.41;682732;28;1417;-81
2023/01/30 00:16:57;;;;;;;33.63;18.10;;;;;;;5.82;59.81;101176.50;679975;29;1050;-82
2023/01/30 00:17:17;;;;;;;34.57;18.57;;;;;;;5.93;59.86;101187.41;680015;29;1139;-82
2023/01/30 00:17:38;;;;;;;35.00;18.95;;;;;;;5.89;59.89;101178.59;680164;29;1247;-81
2023/01/30 00:17:58;;;;;;;34.15;18.25;;;;;;;5.85;59.90;101181.84;682711;29;1277;-82
2023/01/30 00:18:19;;;;;;;33.30;18.00;;;;;;;5.92;59.82;101175.28;679893;29;1182;-82
2023/01/30 00:18:41;;;;;;;32.95;17.67;;;;;;;5.89;59.64;101176.91;680235;29;980;-82
2023/01/30 00:19:01;;;;;;;32.55;18.15;;;;;;;5.93;59.67;101172.78;682780;29;1444;-82
2023/01/30 00:19:22;;;;;;;35.03;18.70;;;;;;;5.91;59.81;101184.75;678826;28;1265;-82
2023/01/30 00:19:43;;;;;;;34.00;18.88;;;;;;;5.95;59.95;101197.06;679947;29;939;-82
2023/01/30 00:20:04;;;;;;;36.10;18.97;;;;;;;5.92;59.79;101185.63;682670;29;1115;-82
2023/01/30 00:20:25;;;;;;;35.15;18.80;;;;;;;5.94;59.68;101203.06;682847;28;1098;-82
2023/01/30 00:20:45;;;;;;;36.78;18.85;;;;;;;5.98;59.47;101173.94;682750;29;1323;-81
2023/01/30 00:21:09;;;;;;;35.22;18.45;;;;;;;5.92;59.77;101191.72;680071;29;1174;-82
2023/01/30 00:21:29;;;;;;;34.38;18.23;;;;;;;5.99;60.40;101177.38;682817;29;1103;-82
2023/01/30 00:21:50;;;;;;;32.85;18.23;;;;;;;5.98;59.98;101199.84;685537;28;1267;-82
2023/01/30 00:22:11;;;;;;;33.92;19.15;;;;;;;6.03;59.66;101179.34;685288;28;1072;-82
2023/01/30 00:22:32;;;;;;;35.50;19.67;;;;;;;6.03;60.01;101185.41;682910;29;1193;-82
2023/01/30 00:22:52;;;;;;;35.75;19.33;;;;;;;5.97;60.20;101173.84;680742;29;1293;-82
2023/01/30 00:23:13;;;;;;;32.95;18.42;;;;;;;5.98;59.96;101197.25;680631;29;1097;-82
2023/01/30 00:23:35;;;;;;;34.23;17.87;;;;;;;6.01;59.69;101187.03;682659;28;1140;-82
2023/01/30 00:23:56;;;;;;;34.58;17.77;;;;;;;6.00;59.61;101185.25;685466;28;965;-82
2023/01/30 00:24:17;;;;;;;35.93;18.83;;;;;;;5.99;59.98;101182.56;685300;28;1456;-82
2023/01/30 00:24:37;;;;;;;33.85;18.42;;;;;;;6.05;60.14;101180.31;685494;28;1458;-82
2023/01/30 00:24:58;;;;;;;34.45;19.02;;;;;;;6.08;59.79;101177.00;685483;28;978;-82
2023/01/30 00:25:18;;;;;;;34.23;18.40;;;;;;;6.03;59.90;101164.69;682680;28;1926;-82
2023/01/30 00:25:44;;;;;;;36.05;19.00;;;;;;;6.04;59.85;101163.00;682759;29;1078;-82
2023/01/30 00:26:05;;;;;;;35.20;18.73;;;;;;;6.12;59.65;101164.28;685264;28;1660;-82
2023/01/30 00:26:26;;;;;;;34.08;18.77;;;;;;;6.09;59.98;101163.22;680289;29;898;-82
2023/01/30 00:26:46;;;;;;;33.58;18.30;;;;;;;6.12;59.91;101160.78;682584;28;1320;-82
2023/01/30 00:27:07;;;;;;;34.47;18.53;;;;;;;6.06;59.45;101157.91;682642;28;1254;-82
2023/01/30 00:27:29;;;;;;;35.90;18.98;;;;;;;6.01;59.94;101155.03;680015;28;1389;-82
2023/01/30 00:27:50;;;;;;;33.90;18.73;;;;;;;5.93;59.98;101136.50;680606;29;1163;-82
2023/01/30 00:28:11;;;;;;;33.10;18.23;;;;;;;5.98;60.10;101149.69;680571;29;1130;-82
2023/01/30 00:28:32;;;;;;;31.92;17.80;;;;;;;5.95;60.33;101140.06;685893;28;1419;-81
2023/01/30 00:28:53;;;;;;;34.78;18.25;;;;;;;5.99;60.03;101149.78;683431;29;1099;-82
2023/01/30 00:29:14;;;;;;;34.33;18.17;;;;;;;5.99;60.29;101151.47;685955;28;1119;-82
2023/01/30 00:29:34;;;;;;;33.97;18.20;;;;;;;6.07;60.30;101170.91;680698;29;1147;-82
2023/01/30 00:29:55;;;;;;;31.65;17.98;;;;;;;6.05;60.41;101166.44;683241;28;1206;-82
2023/01/30 00:30:16;;;;;;;34.10;18.90;;;;;;;5.95;60.48;101134.00;680603;29;1120;-82
2023/01/30 00:30:37;;;;;;;33.53;18.83;;;;;;;5.97;60.09;101154.00;685910;28;1139;-82
2023/01/30 00:30:57;;;;;;;34.80;19.40;;;;;;;5.99;60.50;101136.84;683321;28;1199;-82
2023/01/30 00:31:18;;;;;;;32.73;18.87;;;;;;;5.99;60.16;101142.03;685870;28;1254;-82
2023/01/30 00:31:39;;;;;;;34.97;19.80;;;;;;;6.05;60.04;101150.91;685946;28;1244;-81
2023/01/30 00:32:09;;;;;;;32.92;19.63;;;;;;;6.02;60.42;101134.41;683384;28;1106;-81
2023/01/30 00:32:30;;;;;;;32.30;18.80;;;;;;;5.97;60.17;101143.66;683484;29;1085;-82
2023/01/30 00:32:55;;;;;;;32.25;18.48;;;;;;;6.03;60.52;101133.59;686331;28;1311;-82
2023/01/30 00:33:16;;;;;;;34.15;19.10;;;;;;;6.05;60.53;101150.91;680488;29;1161;-82
2023/01/30 00:33:38;;;;;;;34.60;19.80;;;;;;;6.07;60.28;101144.13;683295;28;1092;-82
2023/01/30 00:33:58;;;;;;;34.33;19.20;;;;;;;6.05;60.26;101130.19;686030;28;784;-82
2023/01/30 00:34:19;;;;;;;33.60;18.90;;;;;;;6.09;60.25;101145.09;685870;28;1193;-82
2023/01/30 00:34:40;;;;;;;33.55;18.55;;;;;;;6.07;60.54;101139.81;680785;29;1085;-82
2023/01/30 00:35:02;;;;;;;35.25;18.65;;;;;;;6.13;60.43;101154.78;683204;28;1281;-82
2023/01/30 00:35:27;;;;;;;36.08;19.00;;;;;;;6.13;60.07;101149.59;680561;29;1122;-82
2023/01/30 00:35:50;;;;;;;33.97;18.88;;;;;;;6.11;60.37;101143.47;683184;28;1213;-82
2023/01/30 00:36:12;;;;;;;33.53;19.27;;;;;;;6.08;60.45;101145.91;688343;28;1240;-82
2023/01/30 00:36:32;;;;;;;32.80;18.90;;;;;;;6.11;60.58;101140.88;683310;28;1146;-82
2023/01/30 00:36:53;;;;;;;33.53;19.08;;;;;;;6.05;60.60;101122.41;683146;29;1054;-82
2023/01/30 00:37:14;;;;;;;35.33;19.63;;;;;;;6.02;60.53;101131.81;677996;29;1014;-82
2023/01/30 00:37:35;;;;;;;36.47;20.20;;;;;;;6.09;60.57;101126.94;683356;29;1278;-82
2023/01/30 00:37:56;;;;;;;35.75;19.98;;;;;;;6.04;60.72;101129.31;683085;28;1462;-82
2023/01/30 00:38:18;;;;;;;34.65;19.50;;;;;;;6.03;60.44;101133.59;680478;28;1225;-82
2023/01/30 00:38:38;;;;;;;32.33;18.90;;;;;;;6.09;60.56;101139.91;680642;29;1225;-83
2023/01/30 00:39:00;;;;;;;35.10;19.50;;;;;;;6.14;60.54;101141.06;680730;29;1155;-82
2023/01/30 00:39:21;;;;;;;36.37;19.40;;;;;;;6.10;60.66;101137.41;683224;28;1030;-82
2023/01/30 00:39:42;;;;;;;37.30;19.40;;;;;;;6.13;60.52;101128.88;683288;29;1083;-82
2023/01/30 00:40:02;;;;;;;36.90;19.23;;;;;;;6.15;60.24;101135.06;680520;29;1152;-82
2023/01/30 00:40:25;;;;;;;36.63;19.20;;;;;;;6.13;60.38;101109.03;680693;29;1210;-82
2023/01/30 00:40:46;;;;;;;38.00;19.65;;;;;;;6.13;60.54;101121.09;680571;29;1421;-82
2023/01/30 00:41:09;;;;;;;36.50;19.70;;;;;;;6.09;60.43;101114.00;680382;29;1225;-82
2023/01/30 00:47:04;;;;;;;35.80;20.15;;;;;;;6.19;60.69;101126.59;680743;29;1041;-81
2023/01/30 00:47:04;;;;;;;34.17;19.35;;;;;;;6.20;60.70;101099.88;685707;28;1092;-82
2023/01/30 00:47:24;;;;;;;34.45;19.67;;;;;;;6.21;60.41;101100.78;680578;28;1368;-82
2023/01/30 00:47:48;;;;;;;35.15;20.23;;;;;;;6.24;60.43;101111.28;680598;29;1132;-82
2023/01/30 00:48:08;;;;;;;35.45;19.65;;;;;;;6.22;60.67;101108.66;685420;28;1107;-82
2023/01/30 00:48:30;;;;;;;33.73;19.43;;;;;;;6.19;60.65;101103.28;683348;29;1030;-82
2023/01/30 00:48:50;;;;;;;35.22;19.42;;;;;;;6.18;60.56;101105.81;683381;29;1020;-82
2023/01/30 00:49:11;;;;;;;35.65;19.75;;;;;;;6.20;60.71;101099.88;685944;28;1490;-82
2023/01/30 00:49:33;;;;;;;34.80;19.58;;;;;;;6.21;60.33;101091.31;680511;29;1216;-82
2023/01/30 00:49:53;;;;;;;33.50;19.23;;;;;;;6.20;60.58;101092.09;683296;28;1080;-82
2023/01/30 00:50:14;;;;;;;34.45;19.67;;;;;;;6.22;60.15;101095.69;683301;28;992;-82
2023/01/30 00:50:42;;;;;;;36.80;19.98;;;;;;;6.21;60.58;101085.22;678124;29;1095;-81
2023/01/30 00:51:05;;;;;;;36.55;19.80;;;;;;;6.14;60.69;101095.28;680414;29;1244;-82
2023/01/30 00:51:27;;;;;;;36.95;19.60;;;;;;;6.23;60.58;101079.31;680618;29;1167;-82
2023/01/30 00:51:47;;;;;;;36.20;19.45;;;;;;;6.27;60.88;101119.25;683129;28;1341;-83
2023/01/30 00:52:08;;;;;;;36.77;19.50;;;;;;;6.25;60.57;101088.06;685874;28;1366;-82
2023/01/30 00:52:29;;;;;;;33.78;18.98;;;;;;;6.22;60.97;101087.91;686045;28;1060;-82
2023/01/30 00:52:50;;;;;;;34.80;19.15;;;;;;;6.19;60.74;101087.72;683252;28;1121;-82
2023/01/30 00:53:13;;;;;;;31.77;18.40;;;;;;;6.15;61.01;101083.22;680429;28;1195;-82
2023/01/30 00:53:34;;;;;;;31.98;18.58;;;;;;;6.24;60.62;101093.16;677927;28;989;-82
2023/01/30 00:53:54;;;;;;;31.35;18.88;;;;;;;6.22;60.94;101087.91;680567;29;1110;-82
2023/01/30 00:54:15;;;;;;;33.38;19.73;;;;;;;6.19;60.96;101094.63;677875;29;1048;-82
2023/01/30 00:54:35;;;;;;;34.90;20.20;;;;;;;6.16;60.74;101098.81;680656;29;979;-82
2023/01/30 00:54:56;;;;;;;35.38;20.10;;;;;;;6.15;60.80;101086.69;683290;28;1147;-82
2023/01/30 00:55:17;;;;;;;34.30;20.10;;;;;;;6.24;60.80;101096.66;683125;28;930;-83
2023/01/30 00:55:38;;;;;;;34.77;19.77;;;;;;;6.26;60.83;101095.00;683332;29;1010;-82
2023/01/30 00:55:58;;;;;;;34.85;19.23;;;;;;;6.20;60.99;101099.88;680579;28;1362;-82
2023/01/30 00:56:19;;;;;;;37.08;19.25;;;;;;;6.22;60.88;101095.69;680462;28;1209;-82
2023/01/30 00:56:39;;;;;;;35.10;19.67;;;;;;;6.17;61.03;101104.91;683097;29;982;-82
2023/01/30 00:57:00;;;;;;;36.17;20.70;;;;;;;6.06;61.35;101085.34;680527;28;1056;-82
2023/01/30 00:57:21;;;;;;;35.40;20.55;;;;;;;6.10;60.89;101092.44;683080;28;1156;-82
2023/01/30 00:57:43;;;;;;;34.33;19.77;;;;;;;6.14;61.54;101095.28;680679;29;997;-82
2023/01/30 00:58:05;;;;;;;33.65;19.15;;;;;;;6.10;61.40;101092.44;680463;29;1154;-82
2023/01/30 00:58:25;;;;;;;34.10;19.50;;;;;;;6.20;61.39;101086.91;680676;29;1158;-82
2023/01/30 00:58:46;;;;;;;34.55;19.20;;;;;;;6.16;61.38;101092.78;679919;29;1183;-82
2023/01/30 00:59:07;;;;;;;32.90;19.07;;;;;;;6.17;61.43;101079.00;683236;29;1140;-82
2023/01/30 00:59:27;;;;;;;32.95;18.60;;;;;;;6.14;60.92;101090.09;683329;29;828;-82
2023/01/30 00:59:48;;;;;;;32.58;19.10;;;;;;;6.26;60.98;101095.00;685883;28;1068;-81
2023/01/30 01:00:09;;;;;;;36.03;20.03;;;;;;;6.27;61.16;101080.38;685871;28;1072;-81
2023/01/30 01:00:30;;;;;;;36.03;20.00;;;;;;;6.24;61.08;101103.50;685828;28;1151;-82
2023/01/30 01:00:51;;;;;;;35.77;20.13;;;;;;;6.23;61.10;101086.19;688618;28;1154;-82
2023/01/30 01:01:12;;;;;;;34.28;20.00;;;;;;;6.22;61.23;101085.31;680432;29;1261;-82
2023/01/30 01:01:32;;;;;;;36.53;20.83;;;;;;;6.26;60.91;101071.69;680544;29;1035;-82
2023/01/30 01:01:53;;;;;;;36.88;20.25;;;;;;;6.34;60.93;101102.28;683375;28;1119;-81
2023/01/30 01:02:13;;;;;;;35.55;19.80;;;;;;;6.22;61.09;101087.91;683179;29;1088;-82
2023/01/30 01:02:37;;;;;;;36.30;19.80;;;;;;;6.23;61.27;101068.94;680586;28;1148;-82
2023/01/30 01:02:58;;;;;;;37.05;20.20;;;;;;;6.32;61.17;101107.38;678352;29;1018;-82
2023/01/30 01:03:18;;;;;;;37.42;20.33;;;;;;;6.25;61.02;101082.88;677968;29;1179;-82
2023/01/30 01:03:39;;;;;;;36.47;19.77;;;;;;;6.24;61.31;101080.19;680563;29;1103;-82
2023/01/30 01:04:00;;;;;;;39.10;20.58;;;;;;;6.35;61.30;101124.81;680536;29;1031;-82
2023/01/30 01:04:21;;;;;;;37.65;20.80;;;;;;;6.25;60.75;101077.69;683114;29;1344;-82
2023/01/30 01:04:42;;;;;;;37.35;21.30;;;;;;;6.29;60.99;101074.44;683222;29;1531;-82
2023/01/30 01:05:05;;;;;;;38.78;21.12;;;;;;;6.26;61.03;101079.47;682931;28;1184;-82
2023/01/30 01:05:26;;;;;;;38.45;20.85;;;;;;;6.34;60.63;101073.78;680457;29;1918;-82
2023/01/30 01:05:47;;;;;;;38.55;20.55;;;;;;;6.38;61.07;101078.31;680445;29;1201;-82
2023/01/30 01:06:08;;;;;;;35.92;20.35;;;;;;;6.42;60.92;101077.63;683154;29;997;-82
2023/01/30 01:06:29;;;;;;;38.85;20.75;;;;;;;6.42;60.97;101075.03;683095;29;1035;-82
2023/01/30 01:06:50;;;;;;;36.75;20.60;;;;;;;6.39;61.14;101083.56;683044;29;1069;-82
2023/01/30 01:07:12;;;;;;;36.25;20.90;;;;;;;6.38;61.07;101075.72;680330;28;1189;-82
2023/01/30 01:07:33;;;;;;;34.38;20.23;;;;;;;6.31;60.81;101071.91;683163;28;1081;-82
2023/01/30 01:08:10;;;;;;;35.67;20.73;;;;;;;6.23;61.07;101074.13;683302;29;892;-82
2023/01/30 01:08:30;;;;;;;36.00;20.65;;;;;;;6.29;60.81;101064.09;683149;28;1132;-82
2023/01/30 01:08:51;;;;;;;37.97;21.38;;;;;;;6.34;61.22;101074.69;688524;28;1207;-82
2023/01/30 01:09:11;;;;;;;38.40;21.23;;;;;;;6.34;60.80;101066.00;680351;29;1035;-82
2023/01/30 01:09:34;;;;;;;38.65;21.10;;;;;;;6.37;61.15;101072.22;678636;28;1208;-82
2023/01/30 01:09:54;;;;;;;37.33;20.70;;;;;;;6.41;61.33;101078.47;677881;29;1000;-82
2023/01/30 01:10:15;;;;;;;36.72;20.67;;;;;;;6.40;61.31;101081.88;682917;29;1174;-82
2023/01/30 01:10:37;;;;;;;36.05;20.20;;;;;;;6.36;61.03;101079.91;685789;28;1515;-82
2023/01/30 01:10:57;;;;;;;35.38;20.10;;;;;;;6.24;61.32;101055.19;685791;28;1034;-82
2023/01/30 01:11:25;;;;;;;36.10;20.33;;;;;;;6.28;61.16;101072.63;682932;28;1289;-82
2023/01/30 01:11:46;;;;;;;36.97;21.70;;;;;;;6.32;61.48;101057.25;683102;28;1129;-82
2023/01/30 01:12:12;;;;;;;37.40;21.55;;;;;;;6.35;61.46;101079.03;683105;28;1368;-82
2023/01/30 01:12:32;;;;;;;40.55;22.15;;;;;;;6.41;61.21;101062.91;680527;29;2014;-82
2023/01/30 01:12:53;;;;;;;39.95;21.33;;;;;;;6.28;61.36;101061.41;683077;29;1293;-82
2023/01/30 01:13:14;;;;;;;40.88;21.63;;;;;;;6.33;61.31;101072.00;680396;28;1340;-82
2023/01/30 01:13:35;;;;;;;38.40;21.50;;;;;;;6.33;61.24;101059.03;680391;29;1046;-82
2023/01/30 01:13:59;;;;;;;37.75;21.02;;;;;;;6.46;61.01;101071.81;683222;29;1011;-82
2023/01/30 01:14:20;;;;;;;36.78;20.85;;;;;;;6.26;61.48;101065.63;683170;29;1084;-82
2023/01/30 01:14:40;;;;;;;37.55;21.13;;;;;;;6.29;61.64;101058.91;680566;29;1333;-82
2023/01/30 01:15:01;;;;;;;38.13;21.80;;;;;;;6.38;61.48;101060.16;683198;28;1096;-82
2023/01/30 01:15:23;;;;;;;38.25;21.52;;;;;;;6.42;61.58;101052.63;680632;29;1088;-83
2023/01/30 01:15:43;;;;;;;41.92;21.52;;;;;;;6.39;61.41;101056.75;680641;29;1042;-82
2023/01/30 01:16:04;;;;;;;41.67;21.40;;;;;;;6.41;61.49;101048.25;683078;28;1195;-82
2023/01/30 01:16:26;;;;;;;43.25;22.48;;;;;;;6.41;61.39;101047.34;688546;28;1185;-82
2023/01/30 01:16:47;;;;;;;38.25;21.20;;;;;;;6.40;61.42;101042.97;689747;28;1115;-83
2023/01/30 01:17:08;;;;;;;38.22;21.40;;;;;;;6.37;61.33;101040.22;682996;28;1229;-82
2023/01/30 01:17:28;;;;;;;35.80;20.70;;;;;;;6.37;61.33;101041.13;683121;28;1161;-82
2023/01/30 01:17:49;;;;;;;36.03;21.00;;;;;;;6.43;61.26;101050.91;683107;29;1002;-82
2023/01/30 01:18:10;;;;;;;35.75;20.60;;;;;;;6.49;61.51;101056.38;680514;29;967;-83
2023/01/30 01:18:30;;;;;;;36.67;20.93;;;;;;;6.46;61.28;101055.34;680545;29;990;-83
2023/01/30 01:18:51;;;;;;;36.55;20.92;;;;;;;6.43;61.31;101030.16;683200;28;1097;-81
2023/01/30 01:19:12;;;;;;;36.63;20.73;;;;;;;6.46;61.43;101047.56;677767;29;1368;-82
2023/01/30 01:19:34;;;;;;;37.67;20.42;;;;;;;6.44;61.39;101066.53;678037;29;1012;-82
2023/01/30 01:19:55;;;;;;;39.07;20.70;;;;;;;6.49;61.34;101043.44;677891;29;1148;-82
2023/01/30 01:20:16;;;;;;;38.75;21.08;;;;;;;6.54;61.24;101044.56;680403;29;1146;-82
2023/01/30 01:20:36;;;;;;;36.15;20.90;;;;;;;6.60;61.22;101045.66;677812;29;1189;-82
2023/01/30 01:21:03;;;;;;;34.10;20.30;;;;;;;6.51;61.20;101044.38;680649;29;1087;-82
2023/01/30 01:21:24;;;;;;;34.00;19.60;;;;;;;6.60;61.35;101037.88;680566;29;1148;-82
2023/01/30 01:21:46;;;;;;;36.58;19.88;;;;;;;6.55;60.91;101030.78;683149;28;1459;-82
2023/01/30 01:22:07;;;;;;;37.72;19.98;;;;;;;6.55;61.22;101041.16;677800;29;1168;-82
2023/01/30 01:22:27;;;;;;;37.37;20.27;;;;;;;6.51;61.23;101023.63;683290;28;1213;-82
2023/01/30 01:22:53;;;;;;;37.87;20.20;;;;;;;6.60;60.90;101050.84;683214;28;1164;-82
2023/01/30 01:23:14;;;;;;;37.97;20.67;;;;;;;6.63;61.09;101028.53;680427;28;2091;-82
2023/01/30 01:23:35;;;;;;;37.28;20.92;;;;;;;6.59;61.18;101026.63;683155;29;1139;-81
2023/01/30 01:23:58;;;;;;;38.13;21.00;;;;;;;6.70;60.88;101028.00;680604;29;1159;-82
2023/01/30 01:24:18;;;;;;;38.50;20.80;;;;;;;6.68;60.98;101059.88;680496;29;1023;-82
2023/01/30 01:24:39;;;;;;;38.08;20.73;;;;;;;6.65;61.01;101024.34;680505;28;1280;-82
2023/01/30 01:25:02;;;;;;;36.53;20.38;;;;;;;6.65;61.02;101041.59;680615;29;1047;-82
2023/01/30 01:25:23;;;;;;;36.75;21.23;;;;;;;6.69;60.95;101039.22;682856;28;1914;-82
2023/01/30 01:25:45;;;;;;;35.80;20.92;;;;;;;6.57;60.79;101029.13;680449;29;1193;-82
2023/01/30 01:26:06;;;;;;;37.33;21.17;;;;;;;6.64;60.77;101021.66;680365;29;1061;-82
2023/01/30 01:26:28;;;;;;;35.47;19.73;;;;;;;6.63;61.43;101022.47;683171;29;2025;-83
2023/01/30 01:26:48;;;;;;;36.08;20.05;;;;;;;6.57;61.09;101023.94;688451;28;732;-82
2023/01/30 01:27:09;;;;;;;35.30;19.70;;;;;;;6.63;61.10;101022.47;685722;28;973;-81
2023/01/30 01:27:30;;;;;;;34.00;19.80;;;;;;;6.64;61.11;101042.41;688517;28;1291;-82
2023/01/30 01:27:51;;;;;;;31.40;19.08;;;;;;;6.57;61.38;101029.13;685962;28;902;-83
2023/01/30 01:28:12;;;;;;;29.63;19.17;;;;;;;6.60;61.26;101011.94;683063;29;1101;-82
2023/01/30 01:28:32;;;;;;;32.80;20.05;;;;;;;6.67;60.90;101026.97;680491;28;1224;-82
2023/01/30 01:28:56;;;;;;;36.17;20.88;;;;;;;6.64;60.89;101003.50;685920;28;1136;-82
2023/01/30 01:29:17;;;;;;;37.00;20.90;;;;;;;6.71;60.96;101026.34;680427;29;1121;-82
2023/01/30 01:29:38;;;;;;;39.80;21.10;;;;;;;6.61;61.08;101019.78;683146;28;1319;-82
2023/01/30 01:29:58;;;;;;;39.60;20.80;;;;;;;6.62;60.86;101051.81;685983;28;871;-82
2023/01/30 01:30:19;;;;;;;40.08;20.13;;;;;;;6.51;61.20;101005.50;685887;28;1188;-82
2023/01/30 01:30:40;;;;;;;35.20;19.30;;;;;;;6.56;60.87;101022.16;680476;28;1332;-82
2023/01/30 01:31:11;;;;;;;37.10;18.83;;;;;;;6.53;61.12;101010.75;680476;28;1383;-82
2023/01/30 01:31:32;;;;;;;41.20;20.17;;;;;;;6.57;61.12;101010.09;680468;28;1233;-82
2023/01/30 01:31:52;;;;;;;39.92;20.50;;;;;;;6.53;61.16;101029.81;683240;28;1096;-82
2023/01/30 01:32:13;;;;;;;39.60;20.53;;;;;;;6.47;61.35;101016.53;683081;28;1388;-82
2023/01/30 01:32:34;;;;;;;35.60;19.75;;;;;;;6.49;61.21;101020.09;677902;28;1241;-83
2023/01/30 01:32:55;;;;;;;34.45;19.70;;;;;;;6.46;60.89;101001.81;680631;29;1161;-82
2023/01/30 01:33:16;;;;;;;33.97;20.35;;;;;;;6.48;61.36;101002.75;680420;28;1295;-82
2023/01/30 01:33:37;;;;;;;33.97;20.10;;;;;;;6.50;61.04;101010.63;677999;28;1150;-82
2023/01/30 01:33:58;;;;;;;35.78;20.17;;;;;;;6.44;61.09;101014.69;680592;29;1247;-82
2023/01/30 01:34:19;;;;;;;37.03;20.52;;;;;;;6.43;61.12;101010.31;683160;28;1369;-81
2023/01/30 01:34:40;;;;;;;36.28;20.23;;;;;;;6.33;61.30;101030.53;688572;28;1113;-82
2023/01/30 01:35:00;;;;;;;35.63;20.17;;;;;;;6.45;61.07;101031.16;683395;28;1243;-82
2023/01/30 01:35:21;;;;;;;34.92;19.67;;;;;;;6.44;61.38;101003.41;683161;29;1249;-82
2023/01/30 01:35:41;;;;;;;35.20;19.92;;;;;;;6.39;61.49;101007.50;680887;28;1149;-82
2023/01/30 01:36:02;;;;;;;35.40;19.97;;;;;;;6.36;61.73;101003.06;683362;29;1103;-83
2023/01/30 01:36:23;;;;;;;35.00;20.48;;;;;;;6.43;61.73;101004.22;680486;28;1205;-82
2023/01/30 01:36:47;;;;;;;37.40;21.05;;;;;;;6.37;61.48;101010.00;688309;28;1475;-82
2023/01/30 01:37:10;;;;;;;36.83;20.73;;;;;;;6.37;61.62;101006.53;685897;28;1123;-81
2023/01/30 01:37:31;;;;;;;36.67;19.90;;;;;;;6.45;61.27;101020.78;680808;28;1257;-82
2023/01/30 01:37:53;;;;;;;34.63;19.60;;;;;;;6.43;61.42;101022.38;683302;29;1442;-82
2023/01/30 01:38:13;;;;;;;35.13;19.77;;;;;;;6.38;61.19;101011.78;685981;28;1193;-82
2023/01/30 01:38:34;;;;;;;35.53;19.70;;;;;;;6.37;61.50;101014.28;683681;28;1133;-82
2023/01/30 01:38:54;;;;;;;35.60;19.27;;;;;;;6.34;61.85;101007.28;680830;29;1138;-82
2023/01/30 01:39:15;;;;;;;34.38;18.90;;;;;;;6.37;61.61;101009.09;677701;28;1040;-82
2023/01/30 01:41:00;;;;;;;35.60;20.38;;;;;;;6.36;61.86;101013.41;680633;29;1042;-82
2023/01/30 01:41:21;;;;;;;38.35;20.77;;;;;;;6.35;61.75;101005.56;681620;28;1319;-81
2023/01/30 01:41:42;;;;;;;37.90;20.40;;;;;;;6.30;61.58;101008.84;683352;28;1219;-82
2023/01/30 01:42:02;;;;;;;37.92;21.10;;;;;;;6.35;62.05;101018.53;683188;28;1103;-81
2023/01/30 01:42:28;;;;;;;37.75;21.50;;;;;;;6.30;62.06;101001.06;683320;28;906;-82
2023/01/30 01:42:49;;;;;;;37.67;21.67;;;;;;;6.34;61.92;101014.16;680593;28;1231;-82
2023/01/30 01:43:19;;;;;;;38.75;21.15;;;;;;;6.34;62.14;101008.97;683241;29;942;-82
2023/01/30 01:43:59;;;;;;;38.65;21.08;;;;;;;6.42;61.98;101028.38;682823;29;2104;-81
2023/01/30 01:44:23;;;;;;;37.28;20.30;;;;;;;6.26;62.05;101012.06;682985;29;1053;-82
2023/01/30 01:45:02;;;;;;;36.90;20.77;;;;;;;6.42;62.15;101034.47;685924;28;1119;-82
2023/01/30 01:45:24;;;;;;;38.45;21.13;;;;;;;6.42;62.47;101020.59;686004;28;1906;-82
2023/01/30 01:45:48;;;;;;;35.83;20.42;;;;;;;6.28;62.61;101018.22;685851;28;1385;-82
2023/01/30 01:46:19;;;;;;;34.60;19.90;;;;;;;6.40;62.17;101019.66;683017;29;1247;-82
2023/01/30 01:46:54;;;;;;;34.63;19.30;;;;;;;6.34;62.29;101016.75;680440;29;1169;-82
2023/01/30 01:47:15;;;;;;;36.95;20.48;;;;;;;6.30;62.65;101008.84;680413;29;1131;-82
2023/01/30 01:47:40;;;;;;;36.75;20.77;;;;;;;6.33;62.39;101008.09;683173;28;1304;-82
2023/01/30 01:48:11;;;;;;;37.67;21.48;;;;;;;6.32;62.79;101036.53;680564;29;1142;-82
2023/01/30 01:48:38;;;;;;;34.97;20.35;;;;;;;6.37;62.32;101020.38;685969;28;1206;-82
2023/01/30 01:49:04;;;;;;;33.60;19.67;;;;;;;6.32;62.29;101010.59;683177;28;1148;-82